sensor_id;sensor_type;location;lat;lon;timestamp;pressure;altitude;pressure_sealevel;temperature;humidity
57232;BME280;43488;46.934;8.276;2023-05-13T00:00:21;96216.91;;;13.09;98.11
57232;BME280;43488;46.934;8.276;2023-05-13T00:02:48;96208.63;;;13.06;98.21
57232;BME280;43488;46.934;8.276;2023-05-13T00:05:16;96215.09;;;13.10;98.00
57232;BME280;43488;46.934;8.276;2023-05-13T00:07:44;96223.91;;;13.16;98.55
57232;BME280;43488;46.934;8.276;2023-05-13T00:10:11;96220.25;;;13.17;98.58
57232;BME280;43488;46.934;8.276;2023-05-13T00:12:39;96219.44;;;13.16;99.11
57232;BME280;43488;46.934;8.276;2023-05-13T00:15:07;96222.91;;;13.17;99.44
57232;BME280;43488;46.934;8.276;2023-05-13T00:17:34;96229.59;;;13.19;99.05
57232;BME280;43488;46.934;8.276;2023-05-13T00:20:02;96229.13;;;13.22;99.02
57232;BME280;43488;46.934;8.276;2023-05-13T00:22:30;96223.03;;;13.22;100.00
57232;BME280;43488;46.934;8.276;2023-05-13T00:24:58;96225.53;;;13.17;100.00
57232;BME280;43488;46.934;8.276;2023-05-13T00:27:26;96232.81;;;13.21;99.24
57232;BME280;43488;46.934;8.276;2023-05-13T00:29:54;96231.84;;;13.16;99.54
57232;BME280;43488;46.934;8.276;2023-05-13T00:32:22;96223.47;;;13.19;100.00
57232;BME280;43488;46.934;8.276;2023-05-13T00:34:50;96222.22;;;13.21;100.00
57232;BME280;43488;46.934;8.276;2023-05-13T00:37:17;96227.84;;;13.25;99.40
57232;BME280;43488;46.934;8.276;2023-05-13T00:39:44;96227.03;;;13.24;99.69
57232;BME280;43488;46.934;8.276;2023-05-13T00:42:12;96223.38;;;13.25;99.70
57232;BME280;43488;46.934;8.276;2023-05-13T00:44:40;96228.31;;;13.22;98.84
57232;BME280;43488;46.934;8.276;2023-05-13T00:47:10;96226.94;;;13.19;99.17
57232;BME280;43488;46.934;8.276;2023-05-13T00:49:38;96227.94;;;13.18;99.40
57232;BME280;43488;46.934;8.276;2023-05-13T00:52:06;96227.94;;;13.18;99.34
57232;BME280;43488;46.934;8.276;2023-05-13T00:54:33;96235.69;;;13.20;100.00
57232;BME280;43488;46.934;8.276;2023-05-13T00:57:00;96227.34;;;13.16;100.00
57232;BME280;43488;46.934;8.276;2023-05-13T00:59:29;96226.34;;;13.17;100.00
57232;BME280;43488;46.934;8.276;2023-05-13T01:10:53;96236.22;;;13.10;100.00
57232;BME280;43488;46.934;8.276;2023-05-13T01:13:27;96232.41;;;13.06;100.00
57232;BME280;43488;46.934;8.276;2023-05-13T01:18:45;96236.91;;;13.05;99.27
57232;BME280;43488;46.934;8.276;2023-05-13T01:21:27;96229.66;;;13.01;98.71
57232;BME280;43488;46.934;8.276;2023-05-13T01:23:55;96230.81;;;13.05;98.55
57232;BME280;43488;46.934;8.276;2023-05-13T01:26:23;96236.91;;;12.94;98.44
57232;BME280;43488;46.934;8.276;2023-05-13T01:28:52;96239.88;;;12.97;98.09
57232;BME280;43488;46.934;8.276;2023-05-13T01:31:20;96229.63;;;12.89;99.33
57232;BME280;43488;46.934;8.276;2023-05-13T01:33:49;96233.91;;;12.90;100.00
57232;BME280;43488;46.934;8.276;2023-05-13T01:36:17;96221.94;;;12.88;100.00
57232;BME280;43488;46.934;8.276;2023-05-13T01:38:45;96226.91;;;12.84;99.35
57232;BME280;43488;46.934;8.276;2023-05-13T01:41:13;96223.78;;;12.75;99.14
57232;BME280;43488;46.934;8.276;2023-05-13T01:43:41;96228.59;;;12.67;99.31
57232;BME280;43488;46.934;8.276;2023-05-13T01:46:12;96222.25;;;12.68;99.63
57232;BME280;43488;46.934;8.276;2023-05-13T01:48:40;96228.44;;;12.62;100.00
57232;BME280;43488;46.934;8.276;2023-05-13T01:51:08;96225.38;;;12.65;100.00
57232;BME280;43488;46.934;8.276;2023-05-13T01:53:35;96228.44;;;12.62;100.00
57232;BME280;43488;46.934;8.276;2023-05-13T01:56:03;96227.63;;;12.61;100.00
57232;BME280;43488;46.934;8.276;2023-05-13T01:58:31;96231.31;;;12.60;100.00
57232;BME280;43488;46.934;8.276;2023-05-13T02:00:58;96225.44;;;12.46;100.00
57232;BME280;43488;46.934;8.276;2023-05-13T02:03:25;96238.41;;;12.48;100.00
57232;BME280;43488;46.934;8.276;2023-05-13T02:05:52;96239.56;;;12.52;100.00
57232;BME280;43488;46.934;8.276;2023-05-13T02:08:20;96236.59;;;12.60;100.00
57232;BME280;43488;46.934;8.276;2023-05-13T02:10:58;96246.13;;;12.61;100.00
57232;BME280;43488;46.934;8.276;2023-05-13T02:13:27;96246.00;;;12.56;100.00
57232;BME280;43488;46.934;8.276;2023-05-13T02:15:55;96246.72;;;12.33;100.00
57232;BME280;43488;46.934;8.276;2023-05-13T02:18:22;96247.19;;;12.30;100.00
57232;BME280;43488;46.934;8.276;2023-05-13T02:20:50;96246.31;;;12.36;100.00
57232;BME280;43488;46.934;8.276;2023-05-13T02:23:17;96242.06;;;12.35;100.00
57232;BME280;43488;46.934;8.276;2023-05-13T02:25:44;96249.81;;;12.30;100.00
57232;BME280;43488;46.934;8.276;2023-05-13T02:28:12;96248.34;;;12.34;100.00
57232;BME280;43488;46.934;8.276;2023-05-13T02:30:39;96251.13;;;12.39;100.00
57232;BME280;43488;46.934;8.276;2023-05-13T02:33:06;96248.13;;;12.36;100.00
57232;BME280;43488;46.934;8.276;2023-05-13T02:35:33;96250.97;;;12.34;100.00
57232;BME280;43488;46.934;8.276;2023-05-13T02:38:01;96250.63;;;12.31;100.00
57232;BME280;43488;46.934;8.276;2023-05-13T02:40:30;96247.38;;;12.17;100.00
57232;BME280;43488;46.934;8.276;2023-05-13T02:42:59;96254.38;;;12.23;100.00
57232;BME280;43488;46.934;8.276;2023-05-13T02:45:27;96252.25;;;12.32;100.00
57232;BME280;43488;46.934;8.276;2023-05-13T02:47:54;96250.59;;;12.19;100.00
57232;BME280;43488;46.934;8.276;2023-05-13T02:50:22;96250.28;;;12.27;100.00
57232;BME280;43488;46.934;8.276;2023-05-13T02:52:49;96241.25;;;12.35;100.00
57232;BME280;43488;46.934;8.276;2023-05-13T02:55:17;96247.69;;;12.39;100.00
57232;BME280;43488;46.934;8.276;2023-05-13T02:57:44;96248.25;;;12.41;100.00
57232;BME280;43488;46.934;8.276;2023-05-13T03:00:13;96247.00;;;12.43;100.00
57232;BME280;43488;46.934;8.276;2023-05-13T03:02:41;96256.75;;;12.43;100.00
57232;BME280;43488;46.934;8.276;2023-05-13T03:05:08;96252.72;;;12.40;100.00
57232;BME280;43488;46.934;8.276;2023-05-13T03:07:35;96256.56;;;12.44;100.00
57232;BME280;43488;46.934;8.276;2023-05-13T03:10:03;96255.16;;;12.42;100.00
57232;BME280;43488;46.934;8.276;2023-05-13T03:12:30;96250.63;;;12.31;100.00
57232;BME280;43488;46.934;8.276;2023-05-13T03:14:58;96254.78;;;12.38;100.00
57232;BME280;43488;46.934;8.276;2023-05-13T03:17:25;96260.16;;;12.32;100.00
57232;BME280;43488;46.934;8.276;2023-05-13T03:19:53;96266.25;;;12.32;100.00
57232;BME280;43488;46.934;8.276;2023-05-13T03:22:20;96266.63;;;12.36;100.00
57232;BME280;43488;46.934;8.276;2023-05-13T03:24:48;96264.06;;;12.29;100.00
57232;BME280;43488;46.934;8.276;2023-05-13T03:27:15;96269.00;;;12.26;100.00
57232;BME280;43488;46.934;8.276;2023-05-13T03:29:42;96269.91;;;12.31;100.00
57232;BME280;43488;46.934;8.276;2023-05-13T03:32:10;96271.03;;;12.23;100.00
57232;BME280;43488;46.934;8.276;2023-05-13T03:34:37;96269.00;;;12.26;100.00
57232;BME280;43488;46.934;8.276;2023-05-13T03:37:05;96274.72;;;12.34;100.00
57232;BME280;43488;46.934;8.276;2023-05-13T03:39:32;96274.31;;;12.37;100.00
57232;BME280;43488;46.934;8.276;2023-05-13T03:42:00;96276.72;;;12.39;100.00
57232;BME280;43488;46.934;8.276;2023-05-13T03:44:28;96273.13;;;12.33;100.00
57232;BME280;43488;46.934;8.276;2023-05-13T03:46:56;96275.66;;;12.28;100.00
57232;BME280;43488;46.934;8.276;2023-05-13T03:49:24;96274.97;;;12.33;100.00
57232;BME280;43488;46.934;8.276;2023-05-13T03:51:51;96279.44;;;12.32;100.00
57232;BME280;43488;46.934;8.276;2023-05-13T03:54:18;96275.66;;;12.28;100.00
57232;BME280;43488;46.934;8.276;2023-05-13T03:56:48;96280.16;;;12.39;100.00
57232;BME280;43488;46.934;8.276;2023-05-13T03:59:15;96277.06;;;12.42;100.00
57232;BME280;43488;46.934;8.276;2023-05-13T04:01:43;96281.84;;;12.34;100.00
57232;BME280;43488;46.934;8.276;2023-05-13T04:04:10;96282.75;;;12.28;100.00
57232;BME280;43488;46.934;8.276;2023-05-13T04:06:38;96283.00;;;12.26;100.00
57232;BME280;43488;46.934;8.276;2023-05-13T04:09:05;96285.53;;;12.33;100.00
57232;BME280;43488;46.934;8.276;2023-05-13T04:11:33;96283.25;;;12.36;100.00
57232;BME280;43488;46.934;8.276;2023-05-13T04:14:01;96290.00;;;12.32;100.00
57232;BME280;43488;46.934;8.276;2023-05-13T04:16:28;96286.78;;;12.30;100.00
57232;BME280;43488;46.934;8.276;2023-05-13T04:18:56;96291.91;;;12.25;100.00
57232;BME280;43488;46.934;8.276;2023-05-13T04:21:23;96293.31;;;12.28;100.00
57232;BME280;43488;46.934;8.276;2023-05-13T04:23:50;96294.03;;;12.35;100.00
57232;BME280;43488;46.934;8.276;2023-05-13T04:26:18;96304.44;;;12.30;100.00
57232;BME280;43488;46.934;8.276;2023-05-13T04:28:46;96305.25;;;12.30;100.00
57232;BME280;43488;46.934;8.276;2023-05-13T04:31:13;96303.19;;;12.32;100.00
57232;BME280;43488;46.934;8.276;2023-05-13T04:33:41;96309.97;;;12.28;100.00
57232;BME280;43488;46.934;8.276;2023-05-13T04:36:08;96310.53;;;12.30;100.00
57232;BME280;43488;46.934;8.276;2023-05-13T04:38:35;96308.69;;;12.31;100.00
57232;BME280;43488;46.934;8.276;2023-05-13T04:41:03;96314.44;;;12.28;100.00
57232;BME280;43488;46.934;8.276;2023-05-13T04:43:30;96318.19;;;12.20;100.00
57232;BME280;43488;46.934;8.276;2023-05-13T04:45:58;96314.50;;;12.21;100.00
57232;BME280;43488;46.934;8.276;2023-05-13T04:48:25;96318.81;;;12.15;100.00
57232;BME280;43488;46.934;8.276;2023-05-13T04:50:55;96321.47;;;12.15;100.00
57232;BME280;43488;46.934;8.276;2023-05-13T04:53:24;96326.38;;;12.12;100.00
57232;BME280;43488;46.934;8.276;2023-05-13T04:55:51;96329.03;;;12.12;100.00
57232;BME280;43488;46.934;8.276;2023-05-13T04:58:23;96330.69;;;12.06;100.00
57232;BME280;43488;46.934;8.276;2023-05-13T05:00:50;96322.28;;;12.16;100.00
57232;BME280;43488;46.934;8.276;2023-05-13T05:03:18;96324.25;;;12.20;100.00
57232;BME280;43488;46.934;8.276;2023-05-13T05:05:45;96334.75;;;12.27;100.00
57232;BME280;43488;46.934;8.276;2023-05-13T05:08:12;96335.31;;;12.29;100.00
57232;BME280;43488;46.934;8.276;2023-05-13T05:10:40;96332.00;;;12.34;100.00
57232;BME280;43488;46.934;8.276;2023-05-13T05:13:08;96334.44;;;12.35;100.00
57232;BME280;43488;46.934;8.276;2023-05-13T05:15:38;96332.22;;;12.32;100.00
57232;BME280;43488;46.934;8.276;2023-05-13T05:18:05;96344.69;;;12.25;100.00
57232;BME280;43488;46.934;8.276;2023-05-13T05:20:32;96337.00;;;12.23;100.00
57232;BME280;43488;46.934;8.276;2023-05-13T05:23:00;96341.84;;;12.27;100.00
57232;BME280;43488;46.934;8.276;2023-05-13T05:25:28;96343.09;;;12.24;100.00
57232;BME280;43488;46.934;8.276;2023-05-13T05:27:55;96345.16;;;12.22;100.00
57232;BME280;43488;46.934;8.276;2023-05-13T05:30:23;96347.34;;;12.25;100.00
57232;BME280;43488;46.934;8.276;2023-05-13T05:32:51;96344.69;;;12.25;100.00
57232;BME280;43488;46.934;8.276;2023-05-13T05:35:19;96342.56;;;12.34;100.00
57232;BME280;43488;46.934;8.276;2023-05-13T05:37:46;96347.50;;;12.30;100.00
57232;BME280;43488;46.934;8.276;2023-05-13T05:40:14;96351.38;;;12.28;100.00
57232;BME280;43488;46.934;8.276;2023-05-13T05:42:43;96349.91;;;12.32;100.00
57232;BME280;43488;46.934;8.276;2023-05-13T05:45:10;96345.72;;;12.24;100.00
57232;BME280;43488;46.934;8.276;2023-05-13T05:47:38;96356.28;;;12.24;100.00
57232;BME280;43488;46.934;8.276;2023-05-13T05:50:06;96349.84;;;12.20;100.00
57232;BME280;43488;46.934;8.276;2023-05-13T05:52:34;96352.84;;;12.23;100.00
57232;BME280;43488;46.934;8.276;2023-05-13T05:55:01;96360.53;;;12.25;100.00
57232;BME280;43488;46.934;8.276;2023-05-13T05:57:29;96359.38;;;12.21;100.00
57232;BME280;43488;46.934;8.276;2023-05-13T05:59:56;96366.78;;;12.31;100.00
57232;BME280;43488;46.934;8.276;2023-05-13T06:02:23;96357.59;;;12.33;100.00
57232;BME280;43488;46.934;8.276;2023-05-13T06:04:51;96365.16;;;12.30;100.00
57232;BME280;43488;46.934;8.276;2023-05-13T06:07:18;96369.41;;;12.31;100.00
57232;BME280;43488;46.934;8.276;2023-05-13T06:09:45;96369.75;;;12.34;100.00
57232;BME280;43488;46.934;8.276;2023-05-13T06:12:13;96372.84;;;12.31;100.00
57232;BME280;43488;46.934;8.276;2023-05-13T06:14:40;96368.31;;;12.38;100.00
57232;BME280;43488;46.934;8.276;2023-05-13T06:17:08;96373.94;;;12.42;100.00
57232;BME280;43488;46.934;8.276;2023-05-13T06:19:36;96371.53;;;12.40;100.00
57232;BME280;43488;46.934;8.276;2023-05-13T06:22:04;96373.41;;;12.51;100.00
57232;BME280;43488;46.934;8.276;2023-05-13T06:24:36;96374.03;;;12.53;100.00
57232;BME280;43488;46.934;8.276;2023-05-13T06:27:05;96364.38;;;12.59;100.00
57232;BME280;43488;46.934;8.276;2023-05-13T06:29:32;96364.66;;;12.69;100.00
57232;BME280;43488;46.934;8.276;2023-05-13T06:31:59;96368.09;;;12.70;100.00
57232;BME280;43488;46.934;8.276;2023-05-13T06:34:28;96364.13;;;12.79;100.00
57232;BME280;43488;46.934;8.276;2023-05-13T06:36:55;96370.00;;;12.81;100.00
57232;BME280;43488;46.934;8.276;2023-05-13T06:39:23;96366.91;;;12.84;100.00
57232;BME280;43488;46.934;8.276;2023-05-13T06:41:51;96366.56;;;12.80;100.00
57232;BME280;43488;46.934;8.276;2023-05-13T06:44:19;96373.66;;;12.80;100.00
57232;BME280;43488;46.934;8.276;2023-05-13T06:46:47;96367.03;;;12.89;100.00
57232;BME280;43488;46.934;8.276;2023-05-13T06:49:14;96365.03;;;12.73;100.00
57232;BME280;43488;46.934;8.276;2023-05-13T06:51:42;96367.53;;;12.68;100.00
57232;BME280;43488;46.934;8.276;2023-05-13T06:54:09;96369.31;;;12.56;100.00
57232;BME280;43488;46.934;8.276;2023-05-13T06:56:36;96367.66;;;12.73;100.00
57232;BME280;43488;46.934;8.276;2023-05-13T06:59:03;96367.72;;;12.85;100.00
57232;BME280;43488;46.934;8.276;2023-05-13T07:01:31;96377.28;;;12.97;100.00
57232;BME280;43488;46.934;8.276;2023-05-13T07:03:59;96369.47;;;12.91;100.00
57232;BME280;43488;46.934;8.276;2023-05-13T07:06:26;96373.06;;;13.08;100.00
57232;BME280;43488;46.934;8.276;2023-05-13T07:08:55;96376.25;;;12.98;100.00
57232;BME280;43488;46.934;8.276;2023-05-13T07:11:22;96379.38;;;13.07;100.00
57232;BME280;43488;46.934;8.276;2023-05-13T07:13:50;96377.38;;;13.21;100.00
57232;BME280;43488;46.934;8.276;2023-05-13T07:16:19;96384.34;;;13.15;100.00
57232;BME280;43488;46.934;8.276;2023-05-13T07:18:47;96380.41;;;13.06;100.00
57232;BME280;43488;46.934;8.276;2023-05-13T07:21:14;96385.38;;;13.14;100.00
57232;BME280;43488;46.934;8.276;2023-05-13T07:23:43;96382.56;;;12.97;100.00
57232;BME280;43488;46.934;8.276;2023-05-13T07:26:10;96381.72;;;12.85;100.00
57232;BME280;43488;46.934;8.276;2023-05-13T07:28:38;96381.97;;;12.95;100.00
57232;BME280;43488;46.934;8.276;2023-05-13T07:31:05;96385.56;;;13.01;100.00
57232;BME280;43488;46.934;8.276;2023-05-13T07:33:33;96385.13;;;13.04;100.00
57232;BME280;43488;46.934;8.276;2023-05-13T07:36:02;96386.91;;;12.92;100.00
57232;BME280;43488;46.934;8.276;2023-05-13T07:38:30;96379.47;;;13.00;100.00
57232;BME280;43488;46.934;8.276;2023-05-13T07:40:58;96380.78;;;13.09;100.00
57232;BME280;43488;46.934;8.276;2023-05-13T07:43:26;96384.09;;;13.35;100.00
57232;BME280;43488;46.934;8.276;2023-05-13T07:45:54;96375.94;;;13.48;100.00
57232;BME280;43488;46.934;8.276;2023-05-13T07:48:21;96381.91;;;13.55;100.00
57232;BME280;43488;46.934;8.276;2023-05-13T07:50:50;96373.16;;;13.43;100.00
57232;BME280;43488;46.934;8.276;2023-05-13T07:53:19;96376.72;;;13.49;100.00
57232;BME280;43488;46.934;8.276;2023-05-13T07:55:46;96369.63;;;13.73;100.00
57232;BME280;43488;46.934;8.276;2023-05-13T07:58:14;96379.97;;;13.62;100.00
57232;BME280;43488;46.934;8.276;2023-05-13T08:00:41;96377.34;;;13.62;100.00
57232;BME280;43488;46.934;8.276;2023-05-13T08:03:08;96382.25;;;13.71;100.00
57232;BME280;43488;46.934;8.276;2023-05-13T08:05:36;96373.06;;;13.73;100.00
57232;BME280;43488;46.934;8.276;2023-05-13T08:08:03;96373.31;;;13.83;100.00
57232;BME280;43488;46.934;8.276;2023-05-13T08:10:31;96375.97;;;13.72;100.00
57232;BME280;43488;46.934;8.276;2023-05-13T08:12:59;96378.59;;;13.83;100.00
57232;BME280;43488;46.934;8.276;2023-05-13T08:15:27;96380.53;;;13.88;100.00
57232;BME280;43488;46.934;8.276;2023-05-13T08:17:54;96377.41;;;14.14;100.00
57232;BME280;43488;46.934;8.276;2023-05-13T08:20:22;96381.31;;;14.23;100.00
57232;BME280;43488;46.934;8.276;2023-05-13T08:22:56;96379.00;;;14.27;100.00
57232;BME280;43488;46.934;8.276;2023-05-13T08:25:24;96381.75;;;14.32;100.00
57232;BME280;43488;46.934;8.276;2023-05-13T08:27:52;96385.31;;;14.38;100.00
57232;BME280;43488;46.934;8.276;2023-05-13T08:30:21;96380.59;;;14.40;100.00
57232;BME280;43488;46.934;8.276;2023-05-13T08:32:50;96386.31;;;14.60;99.76
57232;BME280;43488;46.934;8.276;2023-05-13T08:35:19;96381.75;;;14.32;97.18
57232;BME280;43488;46.934;8.276;2023-05-13T08:37:48;96382.19;;;14.41;99.45
57232;BME280;43488;46.934;8.276;2023-05-13T08:40:16;96383.56;;;14.43;99.90
57232;BME280;43488;46.934;8.276;2023-05-13T08:42:46;96380.34;;;14.53;98.83
57232;BME280;43488;46.934;8.276;2023-05-13T08:45:20;96373.50;;;14.69;98.60
57232;BME280;43488;46.934;8.276;2023-05-13T08:47:55;96378.97;;;14.91;95.89
57232;BME280;43488;46.934;8.276;2023-05-13T08:50:24;96376.50;;;15.01;97.05
57232;BME280;43488;46.934;8.276;2023-05-13T08:52:52;96376.97;;;15.15;97.77
57232;BME280;43488;46.934;8.276;2023-05-13T08:55:21;96373.25;;;15.27;100.00
57232;BME280;43488;46.934;8.276;2023-05-13T08:57:52;96373.31;;;15.32;98.33
57232;BME280;43488;46.934;8.276;2023-05-13T09:00:21;96374.34;;;15.31;92.27
57232;BME280;43488;46.934;8.276;2023-05-13T09:02:50;96373.91;;;15.06;93.13
57232;BME280;43488;46.934;8.276;2023-05-13T09:05:18;96388.63;;;15.14;92.32
57232;BME280;43488;46.934;8.276;2023-05-13T09:07:50;96385.75;;;15.15;92.93
57232;BME280;43488;46.934;8.276;2023-05-13T09:10:17;96386.31;;;15.17;93.25
57232;BME280;43488;46.934;8.276;2023-05-13T09:13:03;96388.50;;;15.20;92.77
57232;BME280;43488;46.934;8.276;2023-05-13T09:15:41;96391.69;;;15.22;95.19
57232;BME280;43488;46.934;8.276;2023-05-13T09:18:11;96378.31;;;15.29;91.27
57232;BME280;43488;46.934;8.276;2023-05-13T09:20:43;96376.75;;;15.33;92.35
57232;BME280;43488;46.934;8.276;2023-05-13T09:23:12;96378.19;;;15.24;91.81
57232;BME280;43488;46.934;8.276;2023-05-13T09:25:40;96385.22;;;15.30;92.63
57232;BME280;43488;46.934;8.276;2023-05-13T09:28:08;96382.41;;;15.36;92.20
57232;BME280;43488;46.934;8.276;2023-05-13T09:30:39;96379.34;;;15.45;90.83
57232;BME280;43488;46.934;8.276;2023-05-13T09:33:14;96375.97;;;15.49;91.59
57232;BME280;43488;46.934;8.276;2023-05-13T09:35:44;96374.94;;;15.50;89.40
57232;BME280;43488;46.934;8.276;2023-05-13T09:38:20;96370.97;;;15.36;90.75
57232;BME280;43488;46.934;8.276;2023-05-13T09:40:55;96372.91;;;15.41;91.42
57232;BME280;43488;46.934;8.276;2023-05-13T09:43:30;96382.69;;;15.23;91.15
57232;BME280;43488;46.934;8.276;2023-05-13T09:46:04;96388.41;;;15.15;95.46
57232;BME280;43488;46.934;8.276;2023-05-13T09:48:33;96382.16;;;15.21;95.01
57232;BME280;43488;46.934;8.276;2023-05-13T09:51:01;96382.69;;;15.23;93.71
57232;BME280;43488;46.934;8.276;2023-05-13T09:53:30;96388.78;;;15.07;92.62
57232;BME280;43488;46.934;8.276;2023-05-13T09:55:58;96389.44;;;15.14;92.10
57232;BME280;43488;46.934;8.276;2023-05-13T09:58:27;96380.50;;;15.03;89.67
57232;BME280;43488;46.934;8.276;2023-05-13T10:00:55;96391.34;;;15.02;92.90
57232;BME280;43488;46.934;8.276;2023-05-13T10:03:23;96394.44;;;15.11;93.26
57232;BME280;43488;46.934;8.276;2023-05-13T10:05:52;96388.63;;;15.14;92.38
57232;BME280;43488;46.934;8.276;2023-05-13T10:08:21;96398.34;;;15.08;92.61
57232;BME280;43488;46.934;8.276;2023-05-13T10:10:53;96396.53;;;15.25;92.54
57232;BME280;43488;46.934;8.276;2023-05-13T10:13:23;96388.81;;;15.41;91.15
57232;BME280;43488;46.934;8.276;2023-05-13T10:15:54;96388.72;;;15.35;92.16
57232;BME280;43488;46.934;8.276;2023-05-13T10:18:23;96386.28;;;15.46;93.20
57232;BME280;43488;46.934;8.276;2023-05-13T10:20:51;96396.53;;;15.25;90.68
57232;BME280;43488;46.934;8.276;2023-05-13T10:23:22;96388.97;;;15.34;91.06
57232;BME280;43488;46.934;8.276;2023-05-13T10:25:50;96384.69;;;15.61;93.88
57232;BME280;43488;46.934;8.276;2023-05-13T10:28:19;96383.25;;;15.25;90.97
57232;BME280;43488;46.934;8.276;2023-05-13T10:30:49;96384.34;;;15.58;91.09
57232;BME280;43488;46.934;8.276;2023-05-13T10:33:26;96389.38;;;15.26;92.31
57232;BME280;43488;46.934;8.276;2023-05-13T10:36:00;96385.22;;;15.30;91.53
57232;BME280;43488;46.934;8.276;2023-05-13T10:39:14;96390.81;;;15.17;90.22
57232;BME280;43488;46.934;8.276;2023-05-13T10:44:57;96383.66;;;15.17;89.42
57232;BME280;43488;46.934;8.276;2023-05-13T10:47:25;96386.81;;;15.31;91.11
57232;BME280;43488;46.934;8.276;2023-05-13T10:49:54;96389.53;;;15.19;89.98
57232;BME280;43488;46.934;8.276;2023-05-13T10:52:21;96392.75;;;15.21;88.07
57232;BME280;43488;46.934;8.276;2023-05-13T10:55:01;96394.53;;;15.32;88.20
57232;BME280;43488;46.934;8.276;2023-05-13T10:57:36;96387.00;;;15.58;88.60
57232;BME280;43488;46.934;8.276;2023-05-13T11:00:16;96385.16;;;15.75;86.60
57232;BME280;43488;46.934;8.276;2023-05-13T11:02:44;96387.47;;;15.88;88.67
57232;BME280;43488;46.934;8.276;2023-05-13T11:05:19;96384.41;;;15.97;87.34
57232;BME280;43488;46.934;8.276;2023-05-13T11:07:55;96389.81;;;15.85;87.77
57232;BME280;43488;46.934;8.276;2023-05-13T11:10:27;96383.06;;;15.77;82.56
57232;BME280;43488;46.934;8.276;2023-05-13T11:15:53;96381.63;;;15.70;86.46
57232;BME280;43488;46.934;8.276;2023-05-13T11:18:29;96380.41;;;15.94;84.42
57232;BME280;43488;46.934;8.276;2023-05-13T11:21:02;96382.00;;;15.95;84.59
57232;BME280;43488;46.934;8.276;2023-05-13T11:24:01;96378.72;;;15.88;79.76
57232;BME280;43488;46.934;8.276;2023-05-13T11:29:14;96369.13;;;16.04;81.50
57232;BME280;43488;46.934;8.276;2023-05-13T11:31:52;96365.25;;;16.11;78.82
57232;BME280;43488;46.934;8.276;2023-05-13T11:34:23;96371.06;;;16.30;82.51
57232;BME280;43488;46.934;8.276;2023-05-13T11:36:55;96353.94;;;16.43;81.00
57232;BME280;43488;46.934;8.276;2023-05-13T11:39:24;96373.53;;;16.59;79.68
57232;BME280;43488;46.934;8.276;2023-05-13T11:41:54;96370.69;;;16.43;79.96
57232;BME280;43488;46.934;8.276;2023-05-13T11:44:27;96364.28;;;16.39;80.51
57232;BME280;43488;46.934;8.276;2023-05-13T11:49:41;96359.25;;;16.43;77.66
57232;BME280;43488;46.934;8.276;2023-05-13T11:52:17;96353.56;;;16.34;77.50
57232;BME280;43488;46.934;8.276;2023-05-13T11:54:51;96352.28;;;16.37;75.79
57232;BME280;43488;46.934;8.276;2023-05-13T11:57:27;96365.56;;;16.37;78.62
57232;BME280;43488;46.934;8.276;2023-05-13T12:00:03;96353.94;;;16.43;79.59
57232;BME280;43488;46.934;8.276;2023-05-13T12:02:33;96358.81;;;16.51;75.47
57232;BME280;43488;46.934;8.276;2023-05-13T12:05:09;96355.59;;;16.27;76.23
57232;BME280;43488;46.934;8.276;2023-05-13T12:07:38;96356.34;;;16.23;77.76
57232;BME280;43488;46.934;8.276;2023-05-13T12:10:06;96356.28;;;16.17;78.80
57232;BME280;43488;46.934;8.276;2023-05-13T12:12:42;96354.94;;;16.37;76.53
57232;BME280;43488;46.934;8.276;2023-05-13T12:15:13;96361.19;;;16.47;76.62
57232;BME280;43488;46.934;8.276;2023-05-13T12:17:41;96353.31;;;16.58;75.42
57232;BME280;43488;46.934;8.276;2023-05-13T12:20:16;96355.00;;;16.42;73.43
57232;BME280;43488;46.934;8.276;2023-05-13T12:28:20;96364.75;;;16.58;73.91
57232;BME280;43488;46.934;8.276;2023-05-13T12:30:52;96362.72;;;16.65;75.33
57232;BME280;43488;46.934;8.276;2023-05-13T12:33:22;96362.34;;;16.57;74.02
57232;BME280;43488;46.934;8.276;2023-05-13T12:36:13;96355.75;;;16.37;78.23
57232;BME280;43488;46.934;8.276;2023-05-13T12:41:28;96366.97;;;16.01;80.92
57232;BME280;43488;46.934;8.276;2023-05-13T12:44:09;96366.09;;;15.61;81.25
57232;BME280;43488;46.934;8.276;2023-05-13T12:46:53;96368.25;;;15.48;83.20
57232;BME280;43488;46.934;8.276;2023-05-13T12:49:21;96357.66;;;15.48;82.79
57232;BME280;43488;46.934;8.276;2023-05-13T12:51:49;96368.25;;;15.48;83.82
57232;BME280;43488;46.934;8.276;2023-05-13T12:54:17;96369.53;;;15.45;83.21
57232;BME280;43488;46.934;8.276;2023-05-13T12:56:45;96365.44;;;15.21;81.69
57232;BME280;43488;46.934;8.276;2023-05-13T12:59:12;96377.72;;;15.10;78.92
57232;BME280;43488;46.934;8.276;2023-05-13T13:01:42;96375.63;;;15.12;80.84
57232;BME280;43488;46.934;8.276;2023-05-13T13:04:09;96373.13;;;15.05;82.33
57232;BME280;43488;46.934;8.276;2023-05-13T13:06:36;96379.59;;;14.98;83.32
57232;BME280;43488;46.934;8.276;2023-05-13T13:09:03;96373.00;;;14.84;82.30
57232;BME280;43488;46.934;8.276;2023-05-13T13:11:31;96372.63;;;14.92;86.21
57232;BME280;43488;46.934;8.276;2023-05-13T13:13:59;96371.34;;;14.94;87.57
57232;BME280;43488;46.934;8.276;2023-05-13T13:16:28;96371.81;;;14.91;86.27
57232;BME280;43488;46.934;8.276;2023-05-13T13:18:55;96367.75;;;15.00;87.01
57232;BME280;43488;46.934;8.276;2023-05-13T13:21:25;96368.19;;;14.69;87.83
57232;BME280;43488;46.934;8.276;2023-05-13T13:23:52;96381.31;;;14.75;88.91
57232;BME280;43488;46.934;8.276;2023-05-13T13:26:20;96380.16;;;14.71;93.49
57232;BME280;43488;46.934;8.276;2023-05-13T13:28:49;96377.91;;;14.63;89.85
57232;BME280;43488;46.934;8.276;2023-05-13T13:31:16;96371.28;;;14.77;93.32
57232;BME280;43488;46.934;8.276;2023-05-13T13:33:44;96373.75;;;14.67;92.51
57232;BME280;43488;46.934;8.276;2023-05-13T13:36:11;96375.97;;;14.59;92.99